createdAt,value
2022-09-20T00:01:51.109Z,4.43
2022-09-20T00:04:22.909Z,4.25
2022-09-20T00:06:56.050Z,4.35
2022-09-20T00:09:24.730Z,4.47
2022-09-20T00:11:53.400Z,4.30
2022-09-20T00:14:22.080Z,4.70
2022-09-20T00:16:50.781Z,4.80
2022-09-20T00:19:21.694Z,4.32
2022-09-20T00:21:51.838Z,4.60
2022-09-20T00:24:24.468Z,4.15
2022-09-20T00:26:53.348Z,4.60
2022-09-20T00:29:22.159Z,4.70
2022-09-20T00:31:52.697Z,4.60
2022-09-20T00:34:38.539Z,4.20
2022-09-20T00:37:07.229Z,4.15
2022-09-20T00:39:39.119Z,4.70
2022-09-20T00:42:08.509Z,4.28
2022-09-20T00:44:52.588Z,4.25
2022-09-20T00:47:28.184Z,4.30
2022-09-20T00:50:01.718Z,4.03
2022-09-20T00:52:31.820Z,4.28
2022-09-20T00:55:02.809Z,4.40
2022-09-20T00:57:36.598Z,4.50
2022-09-20T01:00:08.909Z,4.22
2022-09-20T01:02:41.720Z,4.63
2022-09-20T01:05:14.008Z,4.60
2022-09-20T01:07:49.162Z,4.22
2022-09-20T01:10:19.449Z,4.18
2022-09-20T01:12:49.768Z,4.30
2022-09-20T01:15:19.349Z,4.10
2022-09-20T01:17:52.263Z,4.00
2022-09-20T01:20:24.719Z,4.38
2022-09-20T01:23:15.218Z,4.00
2022-09-20T01:26:17.350Z,4.22
2022-09-20T01:28:49.438Z,4.03
2022-09-20T01:31:22.028Z,4.03
2022-09-20T01:33:55.809Z,4.22
2022-09-20T01:36:28.422Z,3.80
2022-09-20T01:39:07.687Z,4.13
2022-09-20T01:41:40.908Z,4.07
2022-09-20T01:44:19.049Z,4.10
2022-09-20T01:46:54.749Z,4.38
2022-09-20T01:49:36.999Z,3.90
2022-09-20T01:52:44.860Z,3.97
2022-09-20T01:55:39.678Z,4.00
2022-09-20T01:58:26.525Z,4.30
2022-09-20T02:01:22.809Z,4.07
2022-09-20T02:04:28.150Z,3.90
2022-09-20T02:07:18.358Z,4.38
2022-09-20T02:10:15.790Z,4.20
2022-09-20T02:12:57.118Z,4.18
2022-09-20T02:15:48.779Z,4.05
2022-09-20T02:18:41.841Z,4.28
2022-09-20T02:21:24.410Z,3.97
2022-09-20T02:24:02.959Z,4.18
2022-09-20T02:26:43.869Z,3.97
2022-09-20T02:29:29.729Z,3.85
2022-09-20T02:32:15.059Z,4.00
2022-09-20T02:35:21.409Z,3.83
2022-09-20T02:38:09.859Z,4.15
2022-09-20T02:41:04.399Z,4.00
2022-09-20T02:43:48.689Z,3.70
2022-09-20T02:46:25.978Z,3.90
2022-09-20T02:49:04.400Z,4.18
2022-09-20T02:51:41.499Z,4.25
2022-09-20T02:54:22.868Z,4.13
2022-09-20T02:57:03.517Z,3.70
2022-09-20T02:59:42.048Z,3.92
2022-09-20T03:02:21.581Z,3.55
2022-09-20T03:05:06.518Z,3.58
2022-09-20T03:07:56.363Z,3.53
2022-09-20T03:10:34.534Z,3.75
2022-09-20T03:13:19.328Z,3.83
2022-09-20T03:15:59.450Z,3.78
2022-09-20T03:18:39.989Z,3.97
2022-09-20T03:21:22.858Z,3.85
2022-09-20T03:24:06.202Z,4.10
2022-09-20T03:26:51.260Z,3.95
2022-09-20T03:29:33.289Z,3.63
2022-09-20T03:32:15.307Z,3.85
2022-09-20T03:34:55.670Z,3.97
2022-09-20T03:37:45.409Z,4.00
2022-09-20T03:40:51.101Z,3.70
2022-09-20T03:43:31.279Z,3.80
2022-09-20T03:46:22.808Z,4.20
2022-09-20T03:49:42.208Z,3.60
2022-09-20T03:52:28.118Z,3.70
2022-09-20T03:55:20.270Z,3.60
2022-09-20T03:58:01.059Z,3.70
2022-09-20T04:00:49.191Z,3.80
2022-09-20T04:03:33.281Z,3.88
2022-09-20T04:06:15.108Z,3.78
2022-09-20T04:09:12.988Z,3.30
2022-09-20T04:11:52.509Z,3.92
2022-09-20T04:14:39.264Z,3.58
2022-09-20T04:17:29.418Z,3.55
2022-09-20T04:20:07.369Z,3.65
2022-09-20T04:22:37.290Z,3.60
2022-09-20T04:25:18.288Z,3.80
2022-09-20T04:27:53.689Z,3.60
2022-09-20T04:30:28.110Z,3.88
2022-09-20T04:33:02.612Z,3.33
2022-09-20T04:36:12.839Z,3.67
2022-09-20T04:38:45.648Z,3.70
2022-09-20T04:41:34.290Z,3.70
2022-09-20T04:44:23.912Z,3.92
2022-09-20T04:47:45.209Z,3.72
2022-09-20T04:50:57.858Z,3.78
2022-09-20T04:53:52.949Z,3.65
2022-09-20T04:56:35.109Z,3.70
2022-09-20T04:59:10.529Z,3.80
2022-09-20T05:02:23.233Z,3.70
2022-09-20T05:05:28.418Z,3.58
2022-09-20T05:08:42.889Z,3.63
2022-09-20T05:11:52.989Z,3.70
2022-09-20T05:14:41.210Z,3.75
2022-09-20T05:17:23.728Z,3.70
2022-09-20T05:20:17.248Z,3.75
2022-09-20T05:23:14.608Z,3.70
2022-09-20T05:26:12.551Z,3.70
2022-09-20T05:28:55.108Z,3.50
2022-09-20T05:31:35.853Z,3.80
2022-09-20T05:34:14.588Z,3.60
2022-09-20T05:36:57.948Z,3.67
2022-09-20T05:39:36.685Z,3.47
2022-09-20T05:42:16.470Z,3.42
2022-09-20T05:44:59.479Z,3.42
2022-09-20T05:47:40.368Z,3.40
2022-09-20T05:50:28.590Z,3.65
2022-09-20T05:53:05.038Z,3.83
2022-09-20T05:55:54.443Z,3.55
2022-09-20T05:58:45.268Z,3.70
2022-09-20T06:01:22.172Z,3.30
2022-09-20T06:03:57.088Z,3.50
2022-09-20T06:06:32.926Z,3.67
2022-09-20T06:12:05.628Z,3.00
2022-09-20T06:14:45.358Z,3.50
2022-09-20T06:17:23.839Z,3.53
2022-09-20T06:20:02.508Z,3.40
2022-09-20T06:22:35.639Z,3.40
2022-09-20T06:25:14.129Z,3.53
2022-09-20T06:27:49.749Z,3.45
2022-09-20T06:30:31.569Z,4.70
2022-09-20T06:33:02.114Z,5.40
2022-09-20T06:35:38.716Z,8.35
2022-09-20T06:38:43.324Z,8.30
2022-09-20T06:41:31.227Z,8.60
2022-09-20T06:44:01.069Z,8.73
2022-09-20T06:46:34.570Z,7.65
2022-09-20T06:49:03.771Z,8.75
2022-09-20T06:51:37.118Z,9.13
2022-09-20T06:54:11.699Z,9.32
2022-09-20T06:56:42.549Z,9.60
2022-09-20T06:59:15.720Z,9.15
2022-09-20T07:01:46.016Z,9.63
2022-09-20T07:04:15.118Z,9.23
2022-09-20T07:06:43.729Z,9.70
2022-09-20T07:09:13.378Z,9.95
2022-09-20T07:11:45.708Z,9.45
2022-09-20T07:14:14.458Z,8.40
2022-09-20T07:16:45.306Z,9.73
2022-09-20T07:19:15.369Z,9.57
2022-09-20T07:21:46.179Z,10.07
2022-09-20T07:24:15.558Z,8.63
2022-09-20T07:26:57.434Z,9.32
2022-09-20T07:29:28.753Z,9.40
2022-09-20T07:31:59.365Z,9.35
2022-09-20T07:34:28.259Z,8.50
2022-09-20T07:37:00.008Z,8.85
2022-09-20T07:39:28.961Z,9.20
2022-09-20T07:41:57.837Z,8.43
2022-09-20T07:44:28.780Z,8.10
2022-09-20T07:47:00.755Z,8.20
2022-09-20T07:49:31.492Z,8.18
2022-09-20T07:52:00.430Z,8.23
2022-09-20T07:54:29.259Z,7.80
2022-09-20T07:56:59.228Z,7.72
2022-09-20T07:59:27.978Z,7.97
2022-09-20T08:01:57.950Z,7.95
2022-09-20T08:04:30.954Z,7.70
2022-09-20T08:07:02.038Z,7.30
2022-09-20T08:09:32.089Z,7.47
2022-09-20T08:14:05.260Z,7.30
2022-09-20T08:14:56.170Z,7.25
2022-09-20T08:17:25.009Z,7.80
2022-09-20T08:20:02.509Z,7.85
2022-09-20T08:22:35.380Z,7.38
2022-09-20T08:25:04.068Z,7.90
2022-09-20T08:27:32.699Z,7.10
2022-09-20T08:30:01.488Z,6.95
2022-09-20T08:32:30.201Z,6.68
2022-09-20T08:35:00.878Z,7.60
2022-09-20T08:37:29.609Z,7.07
2022-09-20T08:39:59.283Z,7.47
2022-09-20T08:42:34.938Z,6.65
2022-09-20T08:45:21.852Z,7.10
2022-09-20T08:47:58.524Z,6.93
2022-09-20T08:50:33.310Z,6.35
2022-09-20T08:53:05.341Z,6.40
2022-09-20T08:55:40.598Z,6.30
2022-09-20T08:58:13.829Z,6.32
2022-09-20T09:00:45.429Z,6.00
2022-09-20T09:03:17.193Z,6.40
2022-09-20T09:05:52.219Z,6.28
2022-09-20T09:08:24.938Z,6.00
2022-09-20T09:10:57.348Z,6.22
2022-09-20T09:13:32.309Z,6.65
2022-09-20T09:16:06.844Z,7.37
2022-09-20T09:18:41.848Z,6.57
2022-09-20T09:21:20.232Z,6.53
2022-09-20T09:23:54.989Z,6.63
2022-09-20T09:26:25.249Z,6.03
2022-09-20T09:29:20.918Z,6.18
2022-09-20T09:31:55.398Z,6.40
2022-09-20T09:34:29.112Z,6.70
2022-09-20T09:37:04.320Z,7.13
2022-09-20T09:39:35.970Z,6.68
2022-09-20T09:42:24.548Z,6.28
2022-09-20T09:44:53.219Z,5.80
2022-09-20T09:47:29.154Z,5.95
2022-09-20T09:50:05.033Z,6.25
2022-09-20T09:52:39.159Z,5.85
2022-09-20T09:55:08.719Z,5.90
2022-09-20T09:57:52.310Z,6.47
2022-09-20T10:00:22.922Z,5.25
2022-09-20T10:03:27.991Z,5.85
2022-09-20T10:06:10.458Z,5.60
2022-09-20T10:08:49.809Z,6.72
2022-09-20T10:11:30.830Z,6.45
2022-09-20T10:14:15.138Z,5.90
2022-09-20T10:16:59.239Z,5.78
2022-09-20T10:19:45.449Z,6.53
2022-09-20T10:24:58.280Z,6.10
2022-09-20T10:27:45.170Z,5.22
2022-09-20T10:30:18.709Z,5.53
2022-09-20T10:33:00.128Z,6.32
2022-09-20T10:35:35.458Z,5.45
2022-09-20T10:38:15.738Z,5.88
2022-09-20T10:41:18.459Z,5.18
2022-09-20T10:44:05.886Z,5.63
2022-09-20T10:46:49.738Z,5.70
2022-09-20T10:49:36.941Z,4.15
2022-09-20T10:52:31.968Z,5.35
2022-09-20T10:55:28.608Z,5.97
2022-09-20T11:00:49.047Z,5.38
2022-09-20T11:03:36.109Z,4.40
2022-09-20T11:06:17.950Z,5.32
2022-09-20T11:08:51.995Z,5.05
2022-09-20T11:11:24.868Z,5.03
2022-09-20T11:14:01.938Z,5.20
2022-09-20T11:16:42.108Z,5.00
2022-09-20T11:19:20.258Z,4.22
2022-09-20T11:21:59.099Z,4.70
2022-09-20T11:24:34.918Z,4.97
2022-09-20T11:27:16.020Z,5.00
2022-09-20T11:29:52.408Z,4.07
2022-09-20T11:32:27.828Z,4.10
2022-09-20T11:34:59.039Z,4.10
2022-09-20T11:37:37.169Z,3.95
2022-09-20T11:40:21.212Z,4.00
2022-09-20T11:42:51.539Z,3.92
2022-09-20T11:45:27.559Z,3.78
2022-09-20T11:48:03.369Z,4.15
2022-09-20T11:50:53.358Z,3.33
2022-09-20T11:53:40.731Z,3.70
2022-09-20T11:56:21.033Z,3.92
2022-09-20T11:58:51.753Z,4.22
2022-09-20T12:01:28.926Z,3.50
2022-09-20T12:04:21.023Z,4.30
2022-09-20T12:06:58.679Z,3.53
2022-09-20T12:09:32.638Z,3.90
2022-09-20T12:12:16.098Z,3.33
2022-09-20T12:15:00.361Z,3.70
2022-09-20T12:18:21.129Z,3.63
2022-09-20T12:21:16.707Z,3.35
2022-09-20T12:24:04.019Z,3.33
2022-09-20T12:26:58.729Z,3.60
2022-09-20T12:29:59.360Z,2.83
2022-09-20T12:32:56.638Z,2.70
2022-09-20T12:35:58.640Z,2.60
2022-09-20T12:38:38.729Z,3.53
2022-09-20T12:41:11.119Z,4.05
2022-09-20T12:43:49.869Z,2.85
2022-09-20T12:46:25.932Z,3.20
2022-09-20T12:49:40.591Z,3.53
2022-09-20T12:52:43.919Z,3.78
2022-09-20T12:55:27.859Z,3.67
2022-09-20T12:57:58.768Z,3.50
2022-09-20T13:00:38.298Z,3.22
2022-09-20T13:03:25.119Z,3.20
2022-09-20T13:06:26.279Z,2.67
2022-09-20T13:09:04.550Z,2.58
2022-09-20T13:11:40.150Z,2.60
2022-09-20T13:14:14.179Z,2.67
2022-09-20T13:16:55.529Z,3.13
2022-09-20T13:19:30.023Z,2.90
2022-09-20T13:22:03.069Z,2.95
2022-09-20T13:24:35.969Z,3.00
2022-09-20T13:27:11.070Z,3.08
2022-09-20T13:29:43.980Z,2.70
2022-09-20T13:32:26.588Z,3.40
2022-09-20T13:35:08.708Z,2.83
2022-09-20T13:37:44.058Z,2.72
2022-09-20T13:40:22.350Z,2.70
2022-09-20T13:43:19.666Z,2.88
2022-09-20T13:45:48.486Z,2.60
2022-09-20T13:48:18.590Z,2.42
2022-09-20T13:50:53.623Z,3.28
2022-09-20T13:53:40.510Z,2.50
2022-09-20T13:56:16.388Z,2.38
2022-09-20T13:58:46.698Z,3.05
2022-09-20T14:01:29.528Z,3.03
2022-09-20T14:04:04.759Z,2.10
2022-09-20T14:06:34.108Z,2.55
2022-09-20T14:09:11.502Z,2.10
2022-09-20T14:11:41.730Z,4.55
2022-09-20T14:14:21.332Z,4.13
2022-09-20T14:16:53.708Z,4.40
2022-09-20T14:19:28.919Z,4.20
2022-09-20T14:22:00.382Z,4.13
2022-09-20T14:24:35.884Z,4.13
2022-09-20T14:27:20.250Z,4.00
2022-09-20T14:29:51.509Z,4.20
2022-09-20T14:32:31.329Z,4.20
2022-09-20T14:35:07.051Z,4.40
2022-09-20T14:40:18.136Z,4.07
2022-09-20T14:42:49.158Z,4.07
2022-09-20T14:45:27.749Z,4.10
2022-09-20T14:48:00.339Z,3.97
2022-09-20T14:50:31.529Z,4.30
2022-09-20T14:53:30.259Z,4.07
2022-09-20T14:56:11.658Z,4.25
2022-09-20T14:59:09.531Z,4.03
2022-09-20T15:01:42.968Z,3.78
2022-09-20T15:04:21.429Z,4.00
2022-09-20T15:06:50.688Z,3.90
2022-09-20T15:09:21.339Z,4.18
2022-09-20T15:12:01.239Z,4.40
2022-09-20T15:14:37.181Z,4.07
2022-09-20T15:17:08.789Z,4.70
2022-09-20T15:19:39.119Z,4.20
2022-09-20T15:22:08.849Z,2.65
2022-09-20T15:24:37.619Z,4.70
2022-09-20T15:27:06.600Z,4.38
2022-09-20T15:29:35.289Z,4.90
2022-09-20T15:32:06.109Z,4.60
2022-09-20T15:34:38.229Z,5.07
2022-09-20T15:37:08.058Z,5.45
2022-09-20T15:39:38.398Z,5.60
2022-09-20T15:42:07.563Z,5.40
2022-09-20T15:44:36.458Z,5.50
2022-09-20T15:47:05.449Z,5.10
2022-09-20T15:49:35.668Z,5.25
2022-09-20T15:52:05.562Z,4.43
2022-09-20T15:54:34.259Z,4.88
2022-09-20T15:57:05.258Z,5.13
2022-09-20T15:59:34.798Z,4.78
2022-09-20T16:02:03.758Z,4.80
2022-09-20T16:04:33.899Z,4.90
2022-09-20T16:07:06.521Z,4.75
2022-09-20T16:09:36.413Z,4.75
2022-09-20T16:12:05.448Z,4.78
2022-09-20T16:14:38.558Z,4.55
2022-09-20T16:17:07.540Z,5.20
2022-09-20T16:19:38.298Z,4.50
2022-09-20T16:22:19.681Z,4.80
2022-09-20T16:24:49.708Z,4.25
2022-09-20T16:27:18.638Z,4.30
2022-09-20T16:29:47.789Z,4.20
2022-09-20T16:32:16.611Z,4.30
2022-09-20T16:34:45.858Z,4.10
2022-09-20T16:37:26.806Z,4.07
2022-09-20T16:39:57.219Z,4.10
2022-09-20T16:42:27.018Z,3.63
2022-09-20T16:44:55.818Z,4.00
2022-09-20T16:47:27.470Z,4.05
2022-09-20T16:49:56.734Z,3.28
2022-09-20T16:52:30.699Z,3.30
2022-09-20T16:54:59.640Z,2.05
2022-09-20T16:57:29.173Z,2.00
2022-09-20T17:00:00.658Z,2.10
2022-09-20T17:02:31.908Z,2.30
2022-09-20T17:05:00.853Z,3.33
2022-09-20T17:07:33.959Z,3.20
2022-09-20T17:10:02.979Z,2.85
2022-09-20T17:12:34.249Z,3.53
2022-09-20T17:15:07.159Z,2.88
2022-09-20T17:17:36.160Z,3.22
2022-09-20T17:20:06.298Z,2.60
2022-09-20T17:22:36.471Z,2.65
2022-09-20T17:25:05.428Z,2.72
2022-09-20T17:27:34.260Z,3.00
2022-09-20T17:30:03.038Z,3.00
2022-09-20T17:32:37.423Z,2.88
2022-09-20T17:35:07.289Z,2.80
2022-09-20T17:37:39.189Z,2.85
2022-09-20T17:40:11.703Z,3.03
2022-09-20T17:42:40.938Z,2.70
2022-09-20T17:45:15.294Z,3.40
2022-09-20T17:47:47.101Z,3.60
2022-09-20T17:50:15.870Z,3.60
2022-09-20T17:52:47.339Z,3.45
2022-09-20T17:55:17.144Z,3.30
2022-09-20T17:57:47.959Z,3.70
2022-09-20T18:00:16.868Z,3.30
2022-09-20T18:02:47.969Z,3.70
2022-09-20T18:05:16.889Z,3.28
2022-09-20T18:07:49.269Z,3.83
2022-09-20T18:10:17.948Z,3.70
2022-09-20T18:12:48.398Z,3.60
2022-09-20T18:15:17.669Z,3.78
2022-09-20T18:17:46.409Z,3.40
2022-09-20T18:20:15.248Z,3.78
2022-09-20T18:22:44.201Z,4.25
2022-09-20T18:25:14.489Z,4.00
2022-09-20T18:27:43.590Z,3.85
2022-09-20T18:30:12.990Z,3.70
2022-09-20T18:32:44.689Z,3.00
2022-09-20T18:35:16.869Z,3.47
2022-09-20T18:37:46.836Z,3.10
2022-09-20T18:40:17.131Z,3.47
2022-09-20T18:42:45.829Z,3.42
2022-09-20T18:45:17.848Z,3.05
2022-09-20T18:47:49.551Z,3.08
2022-09-20T18:50:18.329Z,3.10
2022-09-20T18:52:47.759Z,3.10
2022-09-20T18:55:18.460Z,3.10
2022-09-20T18:57:48.629Z,3.13
2022-09-20T19:00:18.079Z,3.40
2022-09-20T19:03:09.464Z,3.10
2022-09-20T19:05:45.179Z,3.13
2022-09-20T19:08:27.359Z,2.90
2022-09-20T19:11:02.474Z,2.95
2022-09-20T19:13:39.918Z,3.15
2022-09-20T19:16:21.006Z,2.80
2022-09-20T19:19:11.499Z,2.60
2022-09-20T19:21:47.359Z,2.85
2022-09-20T19:24:26.568Z,3.00
2022-09-20T19:26:57.128Z,2.80
2022-09-20T19:29:27.649Z,2.72
2022-09-20T19:31:57.828Z,3.15
2022-09-20T19:34:32.151Z,2.90
2022-09-20T19:37:18.892Z,2.88
2022-09-20T19:40:09.211Z,2.90
2022-09-20T19:42:53.474Z,2.78
2022-09-20T19:45:31.624Z,2.90
2022-09-20T19:48:13.032Z,2.80
2022-09-20T19:50:46.605Z,2.97
2022-09-20T19:53:17.231Z,2.83
2022-09-20T19:55:52.194Z,2.80
2022-09-20T19:58:24.499Z,3.03
2022-09-20T20:00:54.060Z,3.42
2022-09-20T20:03:26.440Z,2.72
2022-09-20T20:06:04.542Z,4.15
2022-09-20T20:08:45.389Z,2.80
2022-09-20T20:11:34.400Z,3.05
2022-09-20T20:14:15.619Z,3.10
2022-09-20T20:16:57.309Z,2.80
2022-09-20T20:19:47.781Z,2.80
2022-09-20T20:22:30.039Z,3.00
2022-09-20T20:24:59.279Z,3.05
2022-09-20T20:27:29.529Z,2.80
2022-09-20T20:30:02.439Z,3.40
2022-09-20T20:32:31.074Z,3.08
2022-09-20T20:35:01.900Z,3.22
2022-09-20T20:37:32.440Z,3.58
2022-09-20T20:40:04.573Z,3.30
2022-09-20T20:42:35.729Z,3.65
2022-09-20T20:45:07.604Z,3.72
2022-09-20T20:47:38.934Z,3.92
2022-09-20T20:50:08.349Z,3.25
2022-09-20T20:52:37.138Z,3.65
2022-09-20T20:55:08.350Z,3.80
2022-09-20T20:57:38.289Z,3.85
2022-09-20T21:00:10.145Z,3.92
2022-09-20T21:03:00.126Z,3.83
2022-09-20T21:05:30.914Z,3.85
2022-09-20T21:07:59.725Z,4.35
2022-09-20T21:10:29.565Z,3.90
2022-09-20T21:12:58.154Z,3.70
2022-09-20T21:15:28.254Z,4.00
2022-09-20T21:17:56.905Z,3.60
2022-09-20T21:20:26.041Z,3.85
2022-09-20T21:22:57.539Z,3.55
2022-09-20T21:25:27.964Z,3.55
2022-09-20T21:27:59.005Z,3.85
2022-09-20T21:30:28.944Z,3.78
2022-09-20T21:32:59.914Z,3.58
2022-09-20T21:35:29.599Z,3.40
2022-09-20T21:38:00.143Z,3.65
2022-09-20T21:40:29.004Z,3.58
2022-09-20T21:42:57.590Z,3.40
2022-09-20T21:45:27.564Z,3.55
2022-09-20T21:47:57.689Z,3.28
2022-09-20T21:50:27.800Z,3.35
2022-09-20T21:52:56.404Z,3.50
2022-09-20T21:55:24.989Z,3.53
2022-09-20T21:57:53.749Z,3.22
2022-09-20T22:00:22.499Z,3.20
2022-09-20T22:02:51.948Z,3.20
2022-09-20T22:05:22.824Z,3.35
2022-09-20T22:07:52.289Z,3.50
2022-09-20T22:10:22.095Z,3.20
2022-09-20T22:12:51.849Z,3.15
2022-09-20T22:15:21.081Z,3.45
2022-09-20T22:17:50.749Z,3.10
2022-09-20T22:20:19.879Z,3.38
2022-09-20T22:22:50.158Z,3.00
2022-09-20T22:25:19.059Z,3.10
2022-09-20T22:27:49.884Z,3.30
2022-09-20T22:30:18.784Z,2.95
2022-09-20T22:32:52.974Z,3.28
2022-09-20T22:36:03.303Z,3.20
2022-09-20T22:38:47.654Z,3.35
2022-09-20T22:41:32.558Z,3.53
2022-09-20T22:44:17.904Z,3.30
2022-09-20T22:46:56.988Z,3.10
2022-09-20T22:49:26.057Z,3.17
2022-09-20T22:51:54.949Z,3.47
2022-09-20T22:54:25.064Z,3.00
2022-09-20T22:56:53.654Z,3.22
2022-09-20T22:59:24.958Z,3.20
2022-09-20T23:01:53.610Z,3.40
2022-09-20T23:04:22.639Z,3.50
2022-09-20T23:06:55.300Z,3.08
2022-09-20T23:09:28.421Z,3.30
2022-09-20T23:11:57.270Z,3.33
2022-09-20T23:14:25.939Z,3.25
2022-09-20T23:16:54.620Z,3.20
2022-09-20T23:19:23.380Z,3.20
2022-09-20T23:21:52.298Z,3.42
2022-09-20T23:24:24.909Z,3.30
2022-09-20T23:26:53.488Z,3.17
2022-09-20T23:29:22.760Z,3.42
2022-09-20T23:31:51.709Z,3.13
2022-09-20T23:34:20.278Z,3.15
2022-09-20T23:36:50.648Z,3.10
2022-09-20T23:39:19.369Z,3.20
2022-09-20T23:41:51.234Z,3.42
2022-09-20T23:44:20.310Z,3.42
2022-09-20T23:46:48.941Z,3.30
2022-09-20T23:49:17.648Z,3.10
2022-09-20T23:51:46.248Z,3.10
2022-09-20T23:54:14.868Z,3.30
2022-09-20T23:56:43.428Z,3.28
2022-09-20T23:59:13.518Z,3.15
